Time;durP1;ratioP1;P1;durP2;ratioP2;P2;SDS_P1;SDS_P2;PMS_P1;PMS_P2;Temp;Humidity;BMP_temperature;BMP_pressure;BME280_temperature;BME280_humidity;BME280_pressure;Samples;Min_cycle;Max_cycle;Signal;HPM_P1;HPM_P2
2023/12/30 00:00:48;;;;;;;;;;;;;;;7.37;97.62;100854.31;4926811;29;19954;-92
2023/12/30 00:03:13;;;;;;;;;;;;;;;7.36;97.56;100849.16;4912445;29;19918;-93
2023/12/30 00:05:41;;;;;;;;;;;;;;;7.33;97.59;100846.59;4914297;29;19970;-93
2023/12/30 00:08:06;;;;;;;;;;;;;;;7.32;97.29;100869.06;4913933;29;19923;-93
2023/12/30 00:10:31;;;;;;;;;;;;;;;7.29;97.45;100863.91;4929130;29;20005;-92
2023/12/30 00:13:00;;;;;;;;;;;;;;;7.25;97.54;100865.69;4916808;29;19931;-93
2023/12/30 00:15:25;;;;;;;;;;;;;;;7.25;97.73;100864.81;4910365;29;19923;-92
2023/12/30 00:17:50;;;;;;;;;;;;;;;7.20;97.42;100871.75;4928706;29;19914;-92
2023/12/30 00:20:16;;;;;;;;;;;;;;;7.19;97.62;100877.81;4917403;29;19921;-91
2023/12/30 00:22:42;;;;;;;;;;;;;;;7.19;97.62;100885.56;4917970;29;19914;-91
2023/12/30 00:25:07;;;;;;;;;;;;;;;7.20;97.43;100888.16;4916022;29;20251;-90
2023/12/30 00:27:32;;;;;;;;;;;;;;;7.19;97.45;100886.44;4932053;29;19954;-94
2023/12/30 00:30:01;;;;;;;;;;;;;;;7.18;97.28;100891.59;4933489;29;19915;-94
2023/12/30 00:32:27;;;;;;;;;;;;;;;7.18;97.23;100894.19;4917983;29;19918;-93
2023/12/30 00:34:52;;;;;;;;;;;;;;;7.16;97.39;100896.81;4917185;29;20438;-91
2023/12/30 00:37:19;;;;;;;;;;;;;;;7.16;97.28;100901.16;4915784;29;19918;-92
2023/12/30 00:39:51;;;;;;;;;;;;;;;7.17;97.27;100900.28;4917950;29;19929;-92
2023/12/30 00:42:16;;;;;;;;;;;;;;;7.12;97.33;100905.47;4917637;29;19921;-92
2023/12/30 00:44:41;;;;;;;;;;;;;;;7.11;97.41;100909.81;4916364;29;20013;-91
2023/12/30 00:47:11;;;;;;;;;;;;;;;7.10;97.23;100907.22;4928225;29;19915;-93
2023/12/30 00:49:36;;;;;;;;;;;;;;;7.07;97.62;100913.28;4916043;29;19915;-92
2023/12/30 00:52:02;;;;;;;;;;;;;;;7.06;97.41;100910.72;4912045;29;19915;-92
2023/12/30 00:54:27;;;;;;;;;;;;;;;7.04;97.64;100907.28;4929298;29;19923;-92
2023/12/30 00:57:12;;;;;;;;;;;;;;;7.02;97.51;100906.44;4921913;29;19915;-93
2023/12/30 00:59:40;;;;;;;;;;;;;;;6.99;97.56;100909.94;4912764;29;19919;-95
2023/12/30 01:02:08;;;;;;;;;;;;;;;6.98;97.71;100926.31;4926200;29;19914;-93
2023/12/30 01:04:33;;;;;;;;;;;;;;;6.96;97.90;100930.66;4907583;29;19922;-92
2023/12/30 01:06:58;;;;;;;;;;;;;;;6.93;97.92;100930.69;4908445;29;19923;-94
2023/12/30 01:09:24;;;;;;;;;;;;;;;6.92;97.96;100929.81;4906951;29;20446;-95
2023/12/30 01:11:49;;;;;;;;;;;;;;;6.93;97.95;100930.69;4907162;29;20018;-92
2023/12/30 01:14:17;;;;;;;;;;;;;;;6.92;98.05;100923.78;4906336;29;19915;-93
2023/12/30 01:16:43;;;;;;;;;;;;;;;6.93;98.13;100935.84;4924612;29;19915;-93
2023/12/30 01:19:08;;;;;;;;;;;;;;;6.92;98.16;100939.31;4907189;29;19954;-92
2023/12/30 01:21:36;;;;;;;;;;;;;;;6.90;98.10;100938.47;4906236;29;19950;-92
2023/12/30 01:24:03;;;;;;;;;;;;;;;6.90;98.03;100939.34;4906022;29;20294;-94
2023/12/30 01:26:29;;;;;;;;;;;;;;;6.90;98.15;100941.03;4906114;29;19925;-92
2023/12/30 01:28:54;;;;;;;;;;;;;;;6.89;98.00;100950.53;4905818;29;19914;-93
2023/12/30 01:31:19;;;;;;;;;;;;;;;6.90;98.14;100951.38;4906581;29;19957;-93
2023/12/30 01:33:45;;;;;;;;;;;;;;;6.88;98.21;100954.00;4924710;29;20393;-90
2023/12/30 01:36:11;;;;;;;;;;;;;;;6.87;98.13;100951.41;4906833;29;20351;-94
2023/12/30 01:38:36;;;;;;;;;;;;;;;6.87;98.06;100951.41;4906456;29;19930;-92
2023/12/30 01:41:02;;;;;;;;;;;;;;;6.86;98.25;100950.56;4907766;29;20009;-94
2023/12/30 01:43:28;;;;;;;;;;;;;;;6.84;98.23;100955.72;4906795;29;19927;-92
2023/12/30 01:45:55;;;;;;;;;;;;;;;6.86;98.17;100958.31;4915419;29;19926;-93
2023/12/30 01:48:21;;;;;;;;;;;;;;;6.84;98.31;100965.22;4910923;29;19914;-93
2023/12/30 01:50:47;;;;;;;;;;;;;;;6.83;98.25;100956.59;4909823;29;19930;-94
2023/12/30 01:53:13;;;;;;;;;;;;;;;6.82;98.35;100964.38;4913379;29;19914;-93
2023/12/30 01:55:38;;;;;;;;;;;;;;;6.81;98.43;100966.13;4911527;29;19925;-92
2023/12/30 01:58:06;;;;;;;;;;;;;;;6.80;98.69;100961.81;4929038;29;20341;-93
2023/12/30 02:00:31;;;;;;;;;;;;;;;6.80;98.68;100976.47;4911945;29;19915;-92
2023/12/30 02:02:57;;;;;;;;;;;;;;;6.78;98.73;100981.66;4936781;29;19914;-92
2023/12/30 02:05:22;;;;;;;;;;;;;;;6.77;98.99;100982.53;4918377;29;19970;-91
2023/12/30 02:07:47;;;;;;;;;;;;;;;6.76;98.94;100988.56;4915008;29;19974;-91
2023/12/30 02:10:13;;;;;;;;;;;;;;;6.75;99.17;100989.44;4928023;29;20512;-91
2023/12/30 02:12:38;;;;;;;;;;;;;;;6.75;99.21;100991.16;4928222;29;19915;-91
2023/12/30 02:15:11;;;;;;;;;;;;;;;6.73;99.32;100990.31;4933511;29;19919;-92
2023/12/30 02:17:36;;;;;;;;;;;;;;;6.72;99.43;100988.59;4909571;29;19915;-92
2023/12/30 02:20:01;;;;;;;;;;;;;;;6.71;99.52;100998.06;4909278;29;20427;-92
2023/12/30 02:22:26;;;;;;;;;;;;;;;6.72;99.58;100994.63;4914873;29;19915;-90
2023/12/30 02:24:52;;;;;;;;;;;;;;;6.72;99.58;100989.44;4914089;29;19926;-91
2023/12/30 02:27:17;;;;;;;;;;;;;;;6.71;99.69;100995.50;4914188;29;19926;-91
2023/12/30 02:29:42;;;;;;;;;;;;;;;6.71;99.74;100994.66;4910868;29;19942;-91
2023/12/30 02:32:07;;;;;;;;;;;;;;;6.72;99.71;100994.63;4910829;29;19919;-90
2023/12/30 02:34:33;;;;;;;;;;;;;;;6.72;99.63;100993.78;4927015;29;19969;-93
2023/12/30 02:36:58;;;;;;;;;;;;;;;6.70;99.83;101001.53;4913653;29;19964;-93
2023/12/30 02:39:23;;;;;;;;;;;;;;;6.70;100.00;101000.69;4928334;29;20552;-91
2023/12/30 02:41:49;;;;;;;;;;;;;;;6.70;100.00;101011.03;4912411;29;19915;-92
2023/12/30 02:44:18;;;;;;;;;;;;;;;6.70;100.00;101011.88;4915302;29;19941;-90
2023/12/30 02:46:43;;;;;;;;;;;;;;;6.72;99.97;101007.56;4911723;29;19997;-93
2023/12/30 02:49:09;;;;;;;;;;;;;;;6.72;100.00;100996.38;4926374;29;19998;-92
2023/12/30 02:51:34;;;;;;;;;;;;;;;6.72;100.00;101004.13;4928875;29;19926;-92
2023/12/30 02:53:59;;;;;;;;;;;;;;;6.72;100.00;100999.78;4914462;29;19915;-90
2023/12/30 02:56:25;;;;;;;;;;;;;;;6.71;100.00;101003.25;4928360;29;20358;-93
2023/12/30 02:58:53;;;;;;;;;;;;;;;6.71;100.00;101003.25;4929313;29;19915;-91
2023/12/30 03:01:18;;;;;;;;;;;;;;;6.71;100.00;101011.00;4913636;29;19969;-92
2023/12/30 03:03:43;;;;;;;;;;;;;;;6.70;100.00;101019.63;4928588;29;19954;-94
2023/12/30 03:06:08;;;;;;;;;;;;;;;6.67;100.00;101014.47;4914192;29;19927;-91
2023/12/30 03:08:34;;;;;;;;;;;;;;;6.66;100.00;101007.63;4928858;29;20563;-93
2023/12/30 03:11:01;;;;;;;;;;;;;;;6.65;100.00;101009.31;4931910;29;19922;-90
2023/12/30 03:13:26;;;;;;;;;;;;;;;6.67;100.00;101019.66;4921794;29;19915;-89
2023/12/30 03:15:52;;;;;;;;;;;;;;;6.68;99.95;101018.78;4929241;29;19929;-92
2023/12/30 03:18:17;;;;;;;;;;;;;;;6.65;100.00;101011.91;4914027;29;19929;-93
2023/12/30 03:20:42;;;;;;;;;;;;;;;6.66;100.00;101020.53;4905869;29;19915;-91
2023/12/30 03:23:07;;;;;;;;;;;;;;;6.67;100.00;101024.81;4913989;29;20365;-90
2023/12/30 03:25:33;;;;;;;;;;;;;;;6.65;100.00;101022.25;4930239;29;19918;-91
2023/12/30 03:27:58;;;;;;;;;;;;;;;6.63;100.00;101025.72;4930563;29;19930;-92
2023/12/30 03:30:23;;;;;;;;;;;;;;;6.62;100.00;101024.00;4916754;29;19915;-92
2023/12/30 03:32:48;;;;;;;;;;;;;;;6.59;100.00;101021.44;4920320;29;20054;-93
2023/12/30 03:35:14;;;;;;;;;;;;;;;6.57;100.00;101015.41;4932306;29;19915;-92
2023/12/30 03:37:39;;;;;;;;;;;;;;;6.57;100.00;101020.59;4917640;29;20009;-90
2023/12/30 03:40:05;;;;;;;;;;;;;;;6.52;100.00;101015.44;4933842;29;19921;-93
2023/12/30 03:42:30;;;;;;;;;;;;;;;6.50;100.00;101019.75;4919978;29;20298;-94
2023/12/30 03:44:56;;;;;;;;;;;;;;;6.47;100.00;101024.94;4933465;29;19919;-92
2023/12/30 03:47:22;;;;;;;;;;;;;;;6.47;100.00;101027.53;4919794;29;19915;-93
2023/12/30 03:49:47;;;;;;;;;;;;;;;6.45;100.00;101035.31;4936044;29;19969;-92
2023/12/30 03:52:12;;;;;;;;;;;;;;;6.43;100.00;101034.44;4932839;29;19915;-92
2023/12/30 03:54:37;;;;;;;;;;;;;;;6.44;100.00;101036.16;4932115;29;19923;-92
2023/12/30 03:57:03;;;;;;;;;;;;;;;6.44;100.00;101031.00;4936566;29;20363;-92
2023/12/30 03:59:28;;;;;;;;;;;;;;;6.43;100.00;101031.88;4936106;29;20583;-93
2023/12/30 04:01:53;;;;;;;;;;;;;;;6.44;100.00;101031.00;4916928;29;19922;-92
2023/12/30 04:04:18;;;;;;;;;;;;;;;6.43;100.00;101028.41;4936104;29;19914;-92
2023/12/30 04:06:44;;;;;;;;;;;;;;;6.41;100.00;101035.31;4930582;29;20425;-92
2023/12/30 04:09:09;;;;;;;;;;;;;;;6.37;100.00;101040.53;4936790;29;19922;-92
2023/12/30 04:11:34;;;;;;;;;;;;;;;6.34;100.00;101037.94;4933230;29;19965;-94
2023/12/30 04:13:59;;;;;;;;;;;;;;;6.35;100.00;101041.38;4930256;29;19973;-93
2023/12/30 04:16:24;;;;;;;;;;;;;;;6.33;100.00;101032.75;4912310;29;19923;-92
2023/12/30 04:18:50;;;;;;;;;;;;;;;6.32;100.00;101044.00;4919345;29;20070;-92
2023/12/30 04:21:15;;;;;;;;;;;;;;;6.33;100.00;101038.81;4914532;29;19978;-93
2023/12/30 04:23:40;;;;;;;;;;;;;;;6.30;100.00;101033.66;4931992;29;19919;-93
2023/12/30 04:26:05;;;;;;;;;;;;;;;6.29;100.00;101036.25;4916196;29;20367;-92
2023/12/30 04:28:31;;;;;;;;;;;;;;;6.27;100.00;101040.56;4917205;29;19922;-92
2023/12/30 04:30:56;;;;;;;;;;;;;;;6.25;100.00;101039.72;4935482;29;20487;-91
2023/12/30 04:33:21;;;;;;;;;;;;;;;6.22;100.00;101038.84;4918021;29;20327;-90
2023/12/30 04:35:47;;;;;;;;;;;;;;;6.21;100.00;101044.88;4932424;29;19918;-91
2023/12/30 04:38:12;;;;;;;;;;;;;;;6.18;100.00;101034.56;4914165;29;19921;-91
2023/12/30 04:40:37;;;;;;;;;;;;;;;6.17;100.00;101045.75;4933576;29;19929;-92
2023/12/30 04:43:02;;;;;;;;;;;;;;;6.16;100.00;101038.03;4913488;29;20006;-91
2023/12/30 04:45:28;;;;;;;;;;;;;;;6.14;100.00;101048.38;4915070;29;20442;-92
2023/12/30 04:47:53;;;;;;;;;;;;;;;6.12;100.00;101050.09;4935762;29;20229;-93
2023/12/30 04:50:18;;;;;;;;;;;;;;;6.09;100.00;101050.09;4940487;29;20017;-91
2023/12/30 04:52:44;;;;;;;;;;;;;;;6.09;100.00;101055.28;4934902;29;19915;-92
2023/12/30 04:55:10;;;;;;;;;;;;;;;6.08;100.00;101053.56;4931826;29;19915;-91
2023/12/30 04:57:35;;;;;;;;;;;;;;;6.06;100.00;101061.28;4930190;29;19915;-92
2023/12/30 05:00:00;;;;;;;;;;;;;;;6.04;100.00;101062.16;4915024;29;19922;-92
2023/12/30 05:02:26;;;;;;;;;;;;;;;6.04;100.00;101069.91;4912478;29;19968;-93
2023/12/30 05:04:51;;;;;;;;;;;;;;;6.04;100.00;101063.06;4930281;29;20298;-92
2023/12/30 05:07:16;;;;;;;;;;;;;;;6.04;100.00;101057.88;4928552;29;19919;-92
2023/12/30 05:09:42;;;;;;;;;;;;;;;6.08;100.00;101063.88;4930841;29;19927;-92
2023/12/30 05:12:07;;;;;;;;;;;;;;;6.06;100.00;101066.47;4916118;29;20369;-92
2023/12/30 05:14:32;;;;;;;;;;;;;;;6.07;100.00;101064.75;4914449;29;20382;-92
2023/12/30 05:16:58;;;;;;;;;;;;;;;6.06;100.00;101076.78;4912125;29;20006;-91
2023/12/30 05:19:23;;;;;;;;;;;;;;;6.07;100.00;101080.25;4931367;29;19963;-91
2023/12/30 05:21:49;;;;;;;;;;;;;;;6.08;100.00;101084.56;4930736;29;20534;-93
2023/12/30 05:24:15;;;;;;;;;;;;;;;6.09;100.00;101086.28;4914346;29;19918;-92
2023/12/30 05:26:40;;;;;;;;;;;;;;;6.08;100.00;101084.56;4913592;29;19941;-93
2023/12/30 05:29:05;;;;;;;;;;;;;;;6.06;100.00;101088.84;4916287;29;19922;-94
2023/12/30 05:31:31;;;;;;;;;;;;;;;6.07;100.00;101090.56;4929406;29;19958;-92
2023/12/30 05:33:56;;;;;;;;;;;;;;;6.08;100.00;101084.56;4914942;29;19919;-91
2023/12/30 05:36:21;;;;;;;;;;;;;;;6.10;100.00;101089.69;4929936;29;19982;-92
2023/12/30 05:38:47;;;;;;;;;;;;;;;6.09;100.00;101091.44;4932799;29;19915;-92
2023/12/30 05:41:12;;;;;;;;;;;;;;;6.09;100.00;101091.44;4908260;29;19915;-92
2023/12/30 05:43:38;;;;;;;;;;;;;;;6.08;100.00;101095.72;4913323;29;19923;-91
2023/12/30 05:46:03;;;;;;;;;;;;;;;6.07;100.00;101095.75;4911078;29;19922;-91
2023/12/30 05:48:29;;;;;;;;;;;;;;;6.07;100.00;101095.75;4911232;29;19915;-91
2023/12/30 05:50:54;;;;;;;;;;;;;;;6.05;100.00;101094.88;4927196;29;19970;-90
2023/12/30 05:53:19;;;;;;;;;;;;;;;6.03;100.00;101096.59;4929568;29;19921;-91
2023/12/30 05:55:44;;;;;;;;;;;;;;;6.02;100.00;101092.31;4929136;29;19915;-93
2023/12/30 05:58:09;;;;;;;;;;;;;;;6.01;100.00;101103.50;4909861;29;19915;-89
2023/12/30 06:00:35;;;;;;;;;;;;;;;5.98;100.00;101106.94;4908136;29;19923;-92
2023/12/30 06:03:00;;;;;;;;;;;;;;;5.99;100.00;101111.22;4912464;29;19915;-93
2023/12/30 06:05:25;;;;;;;;;;;;;;;5.96;100.00;101110.38;4929738;29;19927;-92
2023/12/30 06:07:51;;;;;;;;;;;;;;;5.93;100.00;101108.66;4910410;29;19915;-91
2023/12/30 06:10:16;;;;;;;;;;;;;;;5.92;100.00;101120.72;4927885;29;20016;-91
2023/12/30 06:12:42;;;;;;;;;;;;;;;5.90;100.00;101114.69;4928857;29;19915;-92
2023/12/30 06:15:07;;;;;;;;;;;;;;;5.89;100.00;101115.56;4911316;29;19915;-90
2023/12/30 06:17:33;;;;;;;;;;;;;;;5.88;100.00;101124.16;4928866;29;20470;-91
2023/12/30 06:19:58;;;;;;;;;;;;;;;5.87;100.00;101122.44;4920501;29;20434;-91
2023/12/30 06:22:23;;;;;;;;;;;;;;;5.85;100.00;101124.16;4932817;29;19919;-92
2023/12/30 06:24:48;;;;;;;;;;;;;;;5.84;100.00;101121.59;4934180;29;19957;-92
2023/12/30 06:27:14;;;;;;;;;;;;;;;5.83;100.00;101128.47;4912750;29;19978;-93
2023/12/30 06:29:39;;;;;;;;;;;;;;;5.81;100.00;101119.00;4928889;29;19922;-92
2023/12/30 06:32:05;;;;;;;;;;;;;;;5.81;100.00;101126.75;4909929;29;20276;-92
2023/12/30 06:34:32;;;;;;;;;;;;;;;5.81;100.00;101126.75;4911496;29;19915;-92
2023/12/30 06:36:57;;;;;;;;;;;;;;;5.79;100.00;101129.34;4916161;29;19959;-93
2023/12/30 06:39:23;;;;;;;;;;;;;;;5.78;100.00;101133.63;4913224;29;19953;-92
2023/12/30 06:41:48;;;;;;;;;;;;;;;5.77;100.00;101141.41;4911667;29;20331;-92
2023/12/30 06:44:13;;;;;;;;;;;;;;;5.75;100.00;101135.38;4928746;29;20571;-93
2023/12/30 06:46:40;;;;;;;;;;;;;;;5.75;100.00;101143.13;4930247;29;19929;-92
2023/12/30 06:49:05;;;;;;;;;;;;;;;5.73;100.00;101139.69;4929485;29;19915;-92
2023/12/30 06:51:30;;;;;;;;;;;;;;;5.73;100.00;101131.94;4912069;29;19922;-91
2023/12/30 06:53:58;;;;;;;;;;;;;;;5.72;100.00;101137.94;4929106;29;19915;-92
2023/12/30 06:56:24;;;;;;;;;;;;;;;5.72;100.00;101137.94;4908472;29;19921;-92
2023/12/30 06:58:51;;;;;;;;;;;;;;;5.69;100.00;101136.25;4930192;29;19915;-91
2023/12/30 07:01:18;;;;;;;;;;;;;;;5.71;100.00;101141.41;4910999;29;20036;-91
2023/12/30 07:03:43;;;;;;;;;;;;;;;5.70;100.00;101144.84;4933227;29;19941;-93
2023/12/30 07:06:08;;;;;;;;;;;;;;;5.70;100.00;101134.50;4929415;29;20449;-92
2023/12/30 07:08:34;;;;;;;;;;;;;;;5.69;100.00;101133.66;4929278;29;19915;-90
2023/12/30 07:10:59;;;;;;;;;;;;;;;5.69;100.00;101143.13;4928033;29;19927;-91
2023/12/30 07:13:24;;;;;;;;;;;;;;;5.69;100.00;101148.28;4933332;29;19914;-93
2023/12/30 07:15:52;;;;;;;;;;;;;;;5.70;100.00;101150.88;4913750;29;19915;-91
2023/12/30 07:18:18;;;;;;;;;;;;;;;5.72;100.00;101150.88;4926352;29;19914;-92
2023/12/30 07:20:43;;;;;;;;;;;;;;;5.71;100.00;101151.72;4930992;29;19970;-91
2023/12/30 07:23:08;;;;;;;;;;;;;;;5.75;100.00;101156.03;4928154;29;19966;-92
2023/12/30 07:25:34;;;;;;;;;;;;;;;5.75;100.00;101154.28;4924823;29;19953;-92
2023/12/30 07:27:59;;;;;;;;;;;;;;;5.76;100.00;101150.00;4911064;29;20371;-91
2023/12/30 07:30:24;;;;;;;;;;;;;;;5.75;100.00;101148.28;4931250;29;19915;-92
2023/12/30 07:32:49;;;;;;;;;;;;;;;5.75;100.00;101143.13;4922814;29;19954;-93
2023/12/30 07:35:15;;;;;;;;;;;;;;;5.74;100.00;101154.31;4926561;29;20371;-91
2023/12/30 07:37:40;;;;;;;;;;;;;;;5.74;100.00;101151.72;4923681;29;19997;-94
2023/12/30 07:40:06;;;;;;;;;;;;;;;5.73;100.00;101157.75;4911161;29;19959;-92
2023/12/30 07:42:31;;;;;;;;;;;;;;;5.72;100.00;101166.34;4926721;29;19961;-92
2023/12/30 07:44:56;;;;;;;;;;;;;;;5.70;100.00;101157.75;4915692;29;19919;-92
2023/12/30 07:47:22;;;;;;;;;;;;;;;5.71;100.00;101169.78;4911975;29;19926;-90
2023/12/30 07:49:47;;;;;;;;;;;;;;;5.68;100.00;101167.19;4912526;29;20315;-93
2023/12/30 07:52:12;;;;;;;;;;;;;;;5.69;100.00;101171.50;4926157;29;19931;-93
2023/12/30 07:54:38;;;;;;;;;;;;;;;5.68;100.00;101181.00;4913579;29;19997;-91
2023/12/30 07:57:03;;;;;;;;;;;;;;;5.69;100.00;101179.25;4929899;29;19918;-92
2023/12/30 07:59:28;;;;;;;;;;;;;;;5.70;100.00;101175.81;4909807;29;19926;-92
2023/12/30 08:01:56;;;;;;;;;;;;;;;5.71;100.00;101183.56;4911281;29;20363;-93
2023/12/30 08:04:21;;;;;;;;;;;;;;;5.70;100.00;101183.56;4925145;29;19978;-92
2023/12/30 08:06:47;;;;;;;;;;;;;;;5.73;100.00;101191.31;4916523;29;20403;-92
2023/12/30 08:09:12;;;;;;;;;;;;;;;5.72;100.00;101192.16;4924140;29;20294;-94
2023/12/30 08:11:37;;;;;;;;;;;;;;;5.73;100.00;101197.31;4922249;29;19986;-92
2023/12/30 08:14:02;;;;;;;;;;;;;;;5.74;100.00;101203.34;4930676;29;20005;-91
2023/12/30 08:16:28;;;;;;;;;;;;;;;5.76;100.00;101209.38;4931592;29;20371;-93
2023/12/30 08:18:53;;;;;;;;;;;;;;;5.78;100.00;101208.50;4915959;29;19961;-93
2023/12/30 08:21:19;;;;;;;;;;;;;;;5.80;100.00;101211.13;4932702;29;19918;-94
2023/12/30 08:23:44;;;;;;;;;;;;;;;5.82;100.00;101195.59;4931863;29;20232;-92
2023/12/30 08:26:09;;;;;;;;;;;;;;;5.87;100.00;101201.63;4928462;29;20073;-93
2023/12/30 08:28:35;;;;;;;;;;;;;;;5.87;100.00;101199.91;4932996;29;19915;-92
2023/12/30 08:31:01;;;;;;;;;;;;;;;5.91;100.00;101208.50;4931891;29;19946;-91
2023/12/30 08:33:26;;;;;;;;;;;;;;;5.95;100.00;101204.22;4910694;29;20393;-91
2023/12/30 08:35:52;;;;;;;;;;;;;;;5.97;100.00;101205.94;4930016;29;19915;-92
2023/12/30 08:38:17;;;;;;;;;;;;;;;6.00;100.00;101205.09;4931919;29;19958;-93
2023/12/30 08:40:42;;;;;;;;;;;;;;;6.01;100.00;101207.69;4931620;29;19930;-92
2023/12/30 08:43:08;;;;;;;;;;;;;;;6.04;100.00;101204.22;4933059;29;19919;-92
2023/12/30 08:45:33;;;;;;;;;;;;;;;6.08;100.00;101198.19;4912199;29;19918;-93
2023/12/30 08:47:58;;;;;;;;;;;;;;;6.09;100.00;101194.75;4914257;29;19918;-91
2023/12/30 08:50:23;;;;;;;;;;;;;;;6.10;100.00;101195.59;4930460;29;19915;-91
2023/12/30 08:52:49;;;;;;;;;;;;;;;6.13;100.00;101209.41;4914242;29;19918;-92
2023/12/30 08:55:14;;;;;;;;;;;;;;;6.17;100.00;101202.50;4930157;29;20370;-92
2023/12/30 08:57:39;;;;;;;;;;;;;;;6.17;100.00;101213.66;4932164;29;19915;-91
2023/12/30 09:00:08;;;;;;;;;;;;;;;6.20;100.00;101205.09;4933477;29;20363;-91
2023/12/30 09:02:37;;;;;;;;;;;;;;;6.23;100.00;101208.50;4929510;29;19918;-93
2023/12/30 09:05:02;;;;;;;;;;;;;;;6.25;100.00;101199.91;4928752;29;19918;-91
2023/12/30 09:07:28;;;;;;;;;;;;;;;6.29;100.00;101204.19;4929397;29;19986;-91
2023/12/30 09:09:53;;;;;;;;;;;;;;;6.33;100.00;101211.06;4931174;29;19958;-93
2023/12/30 09:12:19;;;;;;;;;;;;;;;6.35;100.00;101207.63;4917078;29;19945;-92
2023/12/30 09:14:44;;;;;;;;;;;;;;;6.38;100.00;101220.56;4927425;29;19922;-91
2023/12/30 09:17:09;;;;;;;;;;;;;;;6.41;100.00;101221.38;4909202;29;19915;-91
2023/12/30 09:19:34;;;;;;;;;;;;;;;6.43;100.00;101225.69;4914600;29;19921;-93
2023/12/30 09:22:01;;;;;;;;;;;;;;;6.46;100.00;101224.81;4914738;29;20301;-91
2023/12/30 09:24:26;;;;;;;;;;;;;;;6.49;100.00;101227.41;4934720;29;20275;-92
2023/12/30 09:26:51;;;;;;;;;;;;;;;6.52;100.00;101236.00;4911799;29;20375;-93
2023/12/30 09:29:17;;;;;;;;;;;;;;;6.55;100.00;101234.28;4929122;29;19921;-92
2023/12/30 09:31:43;;;;;;;;;;;;;;;6.57;100.00;101238.59;4927443;29;19915;-92
2023/12/30 09:34:08;;;;;;;;;;;;;;;6.59;100.00;101241.16;4927024;29;19928;-91
2023/12/30 09:36:33;;;;;;;;;;;;;;;6.62;100.00;101246.34;4924785;29;20224;-91
2023/12/30 09:38:58;;;;;;;;;;;;;;;6.66;100.00;101242.88;4924437;29;19961;-91
2023/12/30 09:41:24;;;;;;;;;;;;;;;6.66;100.00;101242.88;4911834;29;20371;-94
2023/12/30 09:43:51;;;;;;;;;;;;;;;6.71;100.00;101242.84;4929398;29;20269;-93
2023/12/30 09:46:16;;;;;;;;;;;;;;;6.73;100.00;101244.56;4908793;29;19934;-93
2023/12/30 09:48:42;;;;;;;;;;;;;;;6.75;100.00;101237.66;4914745;29;19923;-93
2023/12/30 09:51:08;;;;;;;;;;;;;;;6.78;100.00;101248.00;4926708;29;20014;-95
2023/12/30 09:53:33;;;;;;;;;;;;;;;6.81;100.00;101248.00;4910745;29;19962;-93
2023/12/30 09:55:58;;;;;;;;;;;;;;;6.83;100.00;101246.25;4928993;29;19918;-93
2023/12/30 09:58:24;;;;;;;;;;;;;;;6.87;100.00;101246.22;4929624;29;19914;-93
2023/12/30 10:00:49;;;;;;;;;;;;;;;6.89;100.00;101247.97;4912416;29;20422;-94
2023/12/30 10:03:23;;;;;;;;;;;;;;;6.91;100.00;101247.94;4914345;29;20455;-94
2023/12/30 10:05:49;;;;;;;;;;;;;;;6.96;100.00;101253.97;4924254;29;20030;-93
2023/12/30 10:08:14;;;;;;;;;;;;;;;6.96;100.00;101251.38;4926512;29;20426;-94
2023/12/30 10:10:46;;;;;;;;;;;;;;;6.97;100.00;101248.78;4912614;29;19930;-94
2023/12/30 10:13:12;;;;;;;;;;;;;;;7.00;100.00;101258.28;4913360;29;19915;-93
2023/12/30 10:15:38;;;;;;;;;;;;;;;7.02;100.00;101250.50;4913671;29;19922;-90
2023/12/30 10:18:04;;;;;;;;;;;;;;;7.04;100.00;101244.44;4904861;29;19922;-90
2023/12/30 10:20:30;;;;;;;;;;;;;;;7.08;100.00;101253.06;4912033;29;19919;-93
2023/12/30 10:22:56;;;;;;;;;;;;;;;7.10;100.00;101248.72;4947074;28;19922;-93
2023/12/30 10:25:21;;;;;;;;;;;;;;;7.12;100.00;101253.03;4910502;29;20294;-93
2023/12/30 10:27:49;;;;;;;;;;;;;;;7.14;100.00;101251.31;4928395;29;19915;-93
2023/12/30 10:30:20;;;;;;;;;;;;;;;7.16;100.00;101247.84;4913608;29;20069;-94
2023/12/30 10:32:46;;;;;;;;;;;;;;;7.20;100.00;101252.13;4921142;29;19930;-91
2023/12/30 10:35:12;;;;;;;;;;;;;;;7.24;100.00;101257.31;4914557;29;19923;-92
2023/12/30 10:37:38;;;;;;;;;;;;;;;7.28;100.00;101252.97;4912321;29;20425;-93
2023/12/30 10:40:05;;;;;;;;;;;;;;;7.33;100.00;101260.69;4925183;29;19970;-93
2023/12/30 10:42:30;;;;;;;;;;;;;;;7.36;100.00;101256.34;4907589;29;19943;-94
2023/12/30 10:44:55;;;;;;;;;;;;;;;7.42;100.00;101255.47;4907760;29;19915;-92
2023/12/30 10:47:21;;;;;;;;;;;;;;;7.45;100.00;101260.63;4923040;29;19921;-92
2023/12/30 10:49:54;;;;;;;;;;;;;;;7.48;100.00;101250.25;4925349;29;19919;-93
2023/12/30 10:52:22;;;;;;;;;;;;;;;7.54;100.00;101251.94;4906386;29;20373;-93
2023/12/30 10:54:54;;;;;;;;;;;;;;;7.57;100.00;101263.16;4923116;29;19969;-94
2023/12/30 10:57:19;;;;;;;;;;;;;;;7.62;100.00;101252.75;4913299;29;19915;-91
2023/12/30 10:59:58;;;;;;;;;;;;;;;7.66;100.00;101248.41;4926167;29;20992;-93
2023/12/30 11:02:26;;;;;;;;;;;;;;;7.70;100.00;101242.34;4921357;29;19922;-95
2023/12/30 11:04:52;;;;;;;;;;;;;;;7.72;100.00;101238.00;4907156;29;20377;-96
2023/12/30 11:07:20;;;;;;;;;;;;;;;7.73;100.00;101230.22;4929005;29;19915;-96
2023/12/30 11:09:45;;;;;;;;;;;;;;;7.78;100.00;101226.75;4913235;29;20092;-92
2023/12/30 11:12:10;;;;;;;;;;;;;;;7.82;100.00;101223.25;4903934;29;20517;-91
2023/12/30 11:14:36;;;;;;;;;;;;;;;7.85;100.00;101223.25;4924967;29;19922;-93
2023/12/30 11:17:01;;;;;;;;;;;;;;;7.90;100.00;101221.44;4905433;29;20017;-90
2023/12/30 11:19:27;;;;;;;;;;;;;;;7.94;100.00;101222.31;4919056;29;19915;-90
2023/12/30 11:21:54;;;;;;;;;;;;;;;7.95;100.00;101219.69;4901462;29;20411;-89
2023/12/30 11:24:20;;;;;;;;;;;;;;;7.96;100.00;101218.81;4929050;29;20009;-90
2023/12/30 11:26:45;;;;;;;;;;;;;;;7.98;100.00;101211.91;4903645;29;20002;-92
2023/12/30 11:29:14;;;;;;;;;;;;;;;7.99;100.00;101211.03;4926702;29;19915;-92
2023/12/30 11:31:43;;;;;;;;;;;;;;;8.01;100.00;101204.09;4910944;29;19950;-94
2023/12/30 11:34:09;;;;;;;;;;;;;;;8.04;100.00;101193.69;4906615;29;20379;-91
2023/12/30 11:36:38;;;;;;;;;;;;;;;8.08;100.00;101196.25;4920993;29;19995;-95
2023/12/30 11:39:07;;;;;;;;;;;;;;;8.12;100.00;101185.84;4909847;29;20070;-93
2023/12/30 11:41:32;;;;;;;;;;;;;;;8.15;100.00;101191.00;4928245;29;19954;-90
2023/12/30 11:43:58;;;;;;;;;;;;;;;8.20;100.00;101188.34;4913590;29;19970;-93
2023/12/30 11:46:27;;;;;;;;;;;;;;;8.27;100.00;101187.41;4928506;29;19944;-92
2023/12/30 11:48:52;;;;;;;;;;;;;;;8.31;100.00;101186.50;4931055;29;19921;-91
2023/12/30 11:51:28;;;;;;;;;;;;;;;8.34;100.00;101183.91;4930370;29;20305;-94
2023/12/30 11:53:54;;;;;;;;;;;;;;;8.38;100.00;101181.25;4917289;29;19962;-91
2023/12/30 11:56:24;;;;;;;;;;;;;;;8.39;100.00;101172.59;4914626;29;20426;-93
2023/12/30 11:58:50;;;;;;;;;;;;;;;8.42;100.00;101167.38;4916544;29;19926;-91
2023/12/30 12:01:17;;;;;;;;;;;;;;;8.40;100.00;101175.19;4935156;29;19914;-92
2023/12/30 12:03:42;;;;;;;;;;;;;;;8.40;100.00;101167.41;4929269;29;19918;-91
2023/12/30 12:06:09;;;;;;;;;;;;;;;8.42;100.00;101167.38;4934273;29;19998;-90
2023/12/30 12:08:34;;;;;;;;;;;;;;;8.42;100.00;101162.19;4908974;29;19958;-90
2023/12/30 12:11:06;;;;;;;;;;;;;;;8.42;100.00;101157.88;4924714;29;19966;-93
2023/12/30 12:13:32;;;;;;;;;;;;;;;8.45;100.00;101155.25;4911396;29;19974;-92
2023/12/30 12:15:58;;;;;;;;;;;;;;;8.48;100.00;101149.19;4914153;29;19923;-94
2023/12/30 12:18:23;;;;;;;;;;;;;;;8.48;100.00;101147.44;4934574;29;19915;-93
2023/12/30 12:20:49;;;;;;;;;;;;;;;8.55;100.00;101148.22;4914714;29;19914;-93
2023/12/30 12:23:16;;;;;;;;;;;;;;;8.55;99.17;101158.59;4929361;29;19922;-91
2023/12/30 12:25:42;;;;;;;;;;;;;;;8.58;99.02;101155.97;4907741;29;19919;-90
2023/12/30 12:28:26;;;;;;;;;;;;;;;8.65;99.44;101147.25;4912939;29;19918;-91
2023/12/30 12:30:51;;;;;;;;;;;;;;;8.78;98.68;101144.50;4912138;29;19962;-91